Glafkaki — SVA7055 — position and weather

sailwx.info

Track history (hours):
 
Tides and Currents Weather Stations Pressure Air Temp Water Temp Dewpoint Dewpoint Depression Visibility Wind Speed Wind Dir Waves Ship Positions

Glafkaki

Last reported at 2017-Oct-25 14:01 UTC. Time now 2017-Nov-20 19:11 UTC.
Position N 37°57' E 023°33'.
Warning: this ship's position is 26 days out of date.

Length 16 m.

Type: Pleasure craft. MMSI: 239965600.

Date/timePositionNaut miles runAvg speedWind from/ knotsBaromVisibWave heightAir tempDewpointWater temp
2017-Oct-25 14:01N 37°57' E 023°33'0 0.0
2017-Oct-25 13:30N 37°57' E 023°33'0 0.0
2017-Oct-25 12:11N 37°57' E 023°33'0 0.0
2017-Oct-25 12:00N 37°57' E 023°33'3 5.2
2017-Oct-25 11:30N 37°57' E 023°36'4 8.9
2017-Oct-25 11:00N 37°53' E 023°40'5 9.9
2017-Oct-25 10:30N 37°49' E 023°43'69 9.4
2017-Oct-25 03:09N 37°31' E 025°07'3 9.7
2017-Oct-25 02:52N 37°30' E 025°11'410.0
2017-Oct-25 02:30N 37°29' E 025°15'4 7.2
2017-Oct-25 01:59N 37°28' E 025°20'0 0.0
2017-Oct-25 00:44N 37°28' E 025°20'0 0.0
2017-Oct-24 22:44N 37°28' E 025°20'0 0.0
2017-Oct-24 22:14N 37°28' E 025°20'0 0.0
2017-Oct-24 21:56N 37°28' E 025°20'0 0.0
2017-Oct-24 21:17N 37°28' E 025°20'0 0.0
2017-Oct-24 20:59N 37°28' E 025°20'0 0.0
2017-Oct-24 20:23N 37°28' E 025°20'0 0.0
2017-Oct-24 19:59N 37°28' E 025°20'0 0.0
2017-Oct-24 19:29N 37°28' E 025°20'0 0.0
2017-Oct-24 18:59N 37°28' E 025°20'0 0.0
2017-Oct-24 18:29N 37°28' E 025°20'0 0.0
2017-Oct-24 17:59N 37°28' E 025°20'0 0.0
2017-Oct-24 17:29N 37°28' E 025°20'0 0.0
2017-Oct-24 16:53N 37°28' E 025°20'0 0.0
2017-Oct-24 16:23N 37°28' E 025°20'0 0.0
2017-Oct-24 15:56N 37°28' E 025°20'0 0.0
2017-Oct-24 15:20N 37°28' E 025°20'0 0.0
2017-Oct-24 14:56N 37°28' E 025°20'0 0.0
2017-Oct-24 14:26N 37°28' E 025°20'0 0.0
2017-Oct-24 13:59N 37°28' E 025°20'0 0.0
2017-Oct-24 13:29N 37°28' E 025°20'0 0.0
2017-Oct-24 12:53N 37°28' E 025°20'0 0.0
2017-Oct-24 12:29N 37°28' E 025°20'0 0.0
2017-Oct-24 11:56N 37°28' E 025°20'0 0.0
2017-Oct-24 11:29N 37°28' E 025°20'0 0.0
2017-Oct-24 10:53N 37°28' E 025°20'0 0.0
2017-Oct-24 10:29N 37°28' E 025°20'0 0.0
2017-Oct-24 09:59N 37°28' E 025°20'0 0.0
2017-Oct-24 09:23N 37°28' E 025°20'0 0.0
2017-Oct-24 08:59N 37°28' E 025°20'0 0.0
2017-Oct-24 08:29N 37°28' E 025°20'0 0.0
2017-Oct-24 07:59N 37°28' E 025°20'0 0.0
2017-Oct-24 07:26N 37°28' E 025°20'0 0.0
2017-Oct-24 06:56N 37°28' E 025°20'0 0.0
2017-Oct-24 06:20N 37°28' E 025°20'0 0.0
2017-Oct-24 05:59N 37°28' E 025°20'0 0.0
2017-Oct-24 05:23N 37°28' E 025°20'0 0.0
2017-Oct-24 04:56N 37°28' E 025°20'0 0.0
2017-Oct-24 04:05N 37°28' E 025°20'0 0.0
2017-Oct-24 03:56N 37°28' E 025°20'0 0.0
2017-Oct-24 03:26N 37°28' E 025°20'0 0.0
2017-Oct-24 02:59N 37°28' E 025°20'0 0.0
2017-Oct-24 02:26N 37°28' E 025°20'0 0.0
2017-Oct-24 01:53N 37°28' E 025°20'0 0.0
2017-Oct-24 01:20N 37°28' E 025°20'0 0.0
2017-Oct-24 00:59N 37°28' E 025°20'0 0.0
2017-Oct-24 00:23N 37°28' E 025°20'0 0.0
2017-Oct-23 23:53N 37°28' E 025°20'0 0.0
2017-Oct-23 23:23N 37°28' E 025°20'0 0.0
2017-Oct-23 22:59N 37°28' E 025°20'0 0.0
2017-Oct-23 22:26N 37°28' E 025°20'0 0.0
2017-Oct-23 21:59N 37°28' E 025°20'0 0.0
2017-Oct-23 21:26N 37°28' E 025°20'0 0.0
2017-Oct-23 20:50N 37°28' E 025°20'0 0.0
2017-Oct-23 20:29N 37°28' E 025°20'0 0.0
2017-Oct-23 19:59N 37°28' E 025°20'0 0.0
2017-Oct-23 19:29N 37°28' E 025°20'0 0.0
2017-Oct-23 18:59N 37°28' E 025°20'0 0.0
2017-Oct-23 18:29N 37°28' E 025°20'0 0.0
2017-Oct-23 17:59N 37°28' E 025°20'0 0.0
2017-Oct-23 17:26N 37°28' E 025°20'0 0.0
2017-Oct-23 16:50N 37°28' E 025°20'0 0.0
2017-Oct-23 16:29N 37°28' E 025°20'0 0.0
2017-Oct-23 15:59N 37°28' E 025°20'0 0.0
2017-Oct-23 15:29N 37°28' E 025°20'0 0.0
2017-Oct-23 14:50N 37°28' E 025°20'0 0.0
2017-Oct-23 14:29N 37°28' E 025°20'0 0.0
2017-Oct-23 13:59N 37°28' E 025°20'0 0.0
2017-Oct-23 13:29N 37°28' E 025°20'0 0.0
2017-Oct-23 12:17N 37°28' E 025°20'0 0.0
2017-Oct-23 11:59N 37°28' E 025°20'0 0.0
2017-Oct-23 11:29N 37°28' E 025°20'0 0.0
2017-Oct-23 10:47N 37°28' E 025°20'0 0.0
2017-Oct-23 10:26N 37°28' E 025°20'0 0.0
2017-Oct-23 09:50N 37°28' E 025°20'0 0.0
2017-Oct-21 11:20N 37°28' E 025°20'  
Track history (hours):
 
Tides and Currents Weather Stations Pressure Air Temp Water Temp Dewpoint Dewpoint Depression Visibility Wind Speed Wind Dir Waves Ship Positions

Glafkaki

Last reported at 2017-Oct-25 14:01 UTC. Time now 2017-Nov-20 19:11 UTC.
Position N 37°57' E 023°33'.
Warning: this ship's position is 26 days out of date.

Length 16 m.

Type: Pleasure craft. MMSI: 239965600.

Date/timePositionNaut miles runAvg speedWind from/ knotsBaromVisibWave heightAir tempDewpointWater temp
2017-Oct-25 14:01N 37°57' E 023°33'0 0.0
2017-Oct-25 13:30N 37°57' E 023°33'0 0.0
2017-Oct-25 12:11N 37°57' E 023°33'0 0.0
2017-Oct-25 12:00N 37°57' E 023°33'3 5.2
2017-Oct-25 11:30N 37°57' E 023°36'4 8.9
2017-Oct-25 11:00N 37°53' E 023°40'5 9.9
2017-Oct-25 10:30N 37°49' E 023°43'69 9.4
2017-Oct-25 03:09N 37°31' E 025°07'3 9.7
2017-Oct-25 02:52N 37°30' E 025°11'410.0
2017-Oct-25 02:30N 37°29' E 025°15'4 7.2
2017-Oct-25 01:59N 37°28' E 025°20'0 0.0
2017-Oct-25 00:44N 37°28' E 025°20'0 0.0
2017-Oct-24 22:44N 37°28' E 025°20'0 0.0
2017-Oct-24 22:14N 37°28' E 025°20'0 0.0
2017-Oct-24 21:56N 37°28' E 025°20'0 0.0
2017-Oct-24 21:17N 37°28' E 025°20'0 0.0
2017-Oct-24 20:59N 37°28' E 025°20'0 0.0
2017-Oct-24 20:23N 37°28' E 025°20'0 0.0
2017-Oct-24 19:59N 37°28' E 025°20'0 0.0
2017-Oct-24 19:29N 37°28' E 025°20'0 0.0
2017-Oct-24 18:59N 37°28' E 025°20'0 0.0
2017-Oct-24 18:29N 37°28' E 025°20'0 0.0
2017-Oct-24 17:59N 37°28' E 025°20'0 0.0
2017-Oct-24 17:29N 37°28' E 025°20'0 0.0
2017-Oct-24 16:53N 37°28' E 025°20'0 0.0
2017-Oct-24 16:23N 37°28' E 025°20'0 0.0
2017-Oct-24 15:56N 37°28' E 025°20'0 0.0
2017-Oct-24 15:20N 37°28' E 025°20'0 0.0
2017-Oct-24 14:56N 37°28' E 025°20'0 0.0
2017-Oct-24 14:26N 37°28' E 025°20'0 0.0
2017-Oct-24 13:59N 37°28' E 025°20'0 0.0
2017-Oct-24 13:29N 37°28' E 025°20'0 0.0
2017-Oct-24 12:53N 37°28' E 025°20'0 0.0
2017-Oct-24 12:29N 37°28' E 025°20'0 0.0
2017-Oct-24 11:56N 37°28' E 025°20'0 0.0
2017-Oct-24 11:29N 37°28' E 025°20'0 0.0
2017-Oct-24 10:53N 37°28' E 025°20'0 0.0
2017-Oct-24 10:29N 37°28' E 025°20'0 0.0
2017-Oct-24 09:59N 37°28' E 025°20'0 0.0
2017-Oct-24 09:23N 37°28' E 025°20'0 0.0
2017-Oct-24 08:59N 37°28' E 025°20'0 0.0
2017-Oct-24 08:29N 37°28' E 025°20'0 0.0
2017-Oct-24 07:59N 37°28' E 025°20'0 0.0
2017-Oct-24 07:26N 37°28' E 025°20'0 0.0
2017-Oct-24 06:56N 37°28' E 025°20'0 0.0
2017-Oct-24 06:20N 37°28' E 025°20'0 0.0
2017-Oct-24 05:59N 37°28' E 025°20'0 0.0
2017-Oct-24 05:23N 37°28' E 025°20'0 0.0
2017-Oct-24 04:56N 37°28' E 025°20'0 0.0
2017-Oct-24 04:05N 37°28' E 025°20'0 0.0
2017-Oct-24 03:56N 37°28' E 025°20'0 0.0
2017-Oct-24 03:26N 37°28' E 025°20'0 0.0
2017-Oct-24 02:59N 37°28' E 025°20'0 0.0
2017-Oct-24 02:26N 37°28' E 025°20'0 0.0
2017-Oct-24 01:53N 37°28' E 025°20'0 0.0
2017-Oct-24 01:20N 37°28' E 025°20'0 0.0
2017-Oct-24 00:59N 37°28' E 025°20'0 0.0
2017-Oct-24 00:23N 37°28' E 025°20'0 0.0
2017-Oct-23 23:53N 37°28' E 025°20'0 0.0
2017-Oct-23 23:23N 37°28' E 025°20'0 0.0
2017-Oct-23 22:59N 37°28' E 025°20'0 0.0
2017-Oct-23 22:26N 37°28' E 025°20'0 0.0
2017-Oct-23 21:59N 37°28' E 025°20'0 0.0
2017-Oct-23 21:26N 37°28' E 025°20'0 0.0
2017-Oct-23 20:50N 37°28' E 025°20'0 0.0
2017-Oct-23 20:29N 37°28' E 025°20'0 0.0
2017-Oct-23 19:59N 37°28' E 025°20'0 0.0
2017-Oct-23 19:29N 37°28' E 025°20'0 0.0
2017-Oct-23 18:59N 37°28' E 025°20'0 0.0
2017-Oct-23 18:29N 37°28' E 025°20'0 0.0
2017-Oct-23 17:59N 37°28' E 025°20'0 0.0
2017-Oct-23 17:26N 37°28' E 025°20'0 0.0
2017-Oct-23 16:50N 37°28' E 025°20'0 0.0
2017-Oct-23 16:29N 37°28' E 025°20'0 0.0
2017-Oct-23 15:59N 37°28' E 025°20'0 0.0
2017-Oct-23 15:29N 37°28' E 025°20'0 0.0
2017-Oct-23 14:50N 37°28' E 025°20'0 0.0
2017-Oct-23 14:29N 37°28' E 025°20'0 0.0
2017-Oct-23 13:59N 37°28' E 025°20'0 0.0
2017-Oct-23 13:29N 37°28' E 025°20'0 0.0
2017-Oct-23 12:17N 37°28' E 025°20'0 0.0
2017-Oct-23 11:59N 37°28' E 025°20'0 0.0
2017-Oct-23 11:29N 37°28' E 025°20'0 0.0
2017-Oct-23 10:47N 37°28' E 025°20'0 0.0
2017-Oct-23 10:26N 37°28' E 025°20'0 0.0
2017-Oct-23 09:50N 37°28' E 025°20'0 0.0
2017-Oct-21 11:20N 37°28' E 025°20'  

Dump ship's entire track history